createdAt,value
2018-09-27T00:02:03.159Z,5.40
2018-09-27T00:04:31.770Z,6.90
2018-09-27T00:07:00.429Z,4.83
2018-09-27T00:09:29.000Z,7.40
2018-09-27T00:11:57.657Z,9.37
2018-09-27T00:14:26.218Z,9.23
2018-09-27T00:16:54.902Z,7.17
2018-09-27T00:19:23.537Z,5.67
2018-09-27T00:21:52.104Z,5.67
2018-09-27T00:24:22.683Z,8.50
2018-09-27T00:26:51.294Z,5.53
2018-09-27T00:29:19.685Z,5.10
2018-09-27T00:31:48.085Z,8.10
2018-09-27T00:34:16.470Z,6.33
2018-09-27T00:36:45.187Z,5.20
2018-09-27T00:39:14.364Z,7.80
2018-09-27T00:41:42.820Z,5.77
2018-09-27T00:44:11.205Z,4.77
2018-09-27T00:46:39.583Z,6.10
2018-09-27T00:49:09.003Z,6.10
2018-09-27T00:51:37.597Z,6.40
2018-09-27T00:54:06.119Z,6.40
2018-09-27T00:56:34.650Z,7.67
2018-09-27T00:59:03.957Z,6.40
2018-09-27T01:01:32.320Z,6.63
2018-09-27T01:04:00.720Z,7.93
2018-09-27T01:06:29.511Z,10.27
2018-09-27T01:08:57.899Z,8.07
2018-09-27T01:11:27.268Z,6.67
2018-09-27T01:13:55.563Z,7.43
2018-09-27T01:16:23.938Z,5.23
2018-09-27T01:18:52.351Z,7.37
2018-09-27T01:21:20.716Z,8.50
2018-09-27T01:23:49.123Z,7.23
2018-09-27T01:26:18.485Z,7.20
2018-09-27T01:28:46.844Z,7.53
2018-09-27T01:31:15.396Z,6.13
2018-09-27T01:33:43.723Z,6.00
2018-09-27T01:36:12.141Z,7.73
2018-09-27T01:38:40.471Z,6.07
2018-09-27T01:41:08.973Z,5.37
2018-09-27T01:43:37.542Z,9.60
2018-09-27T01:46:06.840Z,7.37
2018-09-27T01:48:35.248Z,5.23
2018-09-27T01:51:05.579Z,6.23
2018-09-27T01:53:34.003Z,8.30
2018-09-27T01:56:02.408Z,7.20
2018-09-27T01:58:30.800Z,5.53
2018-09-27T02:00:59.289Z,7.63
2018-09-27T02:03:27.664Z,8.43
2018-09-27T02:05:56.005Z,6.77
2018-09-27T02:08:24.312Z,7.07
2018-09-27T02:10:52.698Z,7.43
2018-09-27T02:13:22.073Z,8.27
2018-09-27T02:15:50.596Z,6.53
2018-09-27T02:18:18.985Z,10.90
2018-09-27T02:20:48.391Z,6.23
2018-09-27T02:23:16.713Z,7.77
2018-09-27T02:25:45.104Z,8.77
2018-09-27T02:28:13.572Z,7.20
2018-09-27T02:30:41.977Z,13.40
2018-09-27T02:33:10.343Z,8.67
2018-09-27T02:35:38.741Z,7.13
2018-09-27T02:38:07.131Z,6.63
2018-09-27T02:40:35.573Z,6.90
2018-09-27T02:43:04.030Z,7.37
2018-09-27T02:45:33.339Z,7.87
2018-09-27T02:48:01.636Z,6.40
2018-09-27T02:50:30.016Z,7.37
2018-09-27T02:52:58.410Z,6.63
2018-09-27T02:55:27.880Z,6.07
2018-09-27T02:57:56.219Z,7.80
2018-09-27T03:00:24.713Z,6.43
2018-09-27T03:02:53.154Z,5.97
2018-09-27T03:05:21.651Z,5.83
2018-09-27T03:07:50.106Z,9.40
2018-09-27T03:10:18.504Z,8.00
2018-09-27T03:12:46.994Z,6.73
2018-09-27T03:15:15.781Z,8.47
2018-09-27T03:17:44.243Z,6.20
2018-09-27T03:20:12.741Z,7.93
2018-09-27T03:22:41.276Z,9.07
2018-09-27T03:25:09.594Z,7.93
2018-09-27T03:27:38.244Z,9.50
2018-09-27T03:30:06.641Z,8.30
2018-09-27T03:32:34.956Z,7.17
2018-09-27T03:35:03.568Z,6.17
2018-09-27T03:37:31.977Z,7.13
2018-09-27T03:40:00.382Z,9.50
2018-09-27T03:42:28.761Z,7.77
2018-09-27T03:44:57.288Z,8.37
2018-09-27T03:47:25.795Z,6.37
2018-09-27T03:49:54.239Z,6.23
2018-09-27T03:52:23.067Z,9.60
2018-09-27T03:54:51.417Z,7.17
2018-09-27T03:57:19.792Z,7.57
2018-09-27T03:59:48.375Z,11.43
2018-09-27T04:02:16.822Z,7.63
2018-09-27T04:04:45.376Z,8.67
2018-09-27T04:07:13.893Z,8.00
2018-09-27T04:09:42.377Z,6.67
2018-09-27T04:12:10.836Z,6.40
2018-09-27T04:14:39.656Z,7.17
2018-09-27T04:17:08.110Z,9.27
2018-09-27T04:19:36.676Z,9.00
2018-09-27T04:22:05.048Z,10.00
2018-09-27T04:24:33.412Z,5.57
2018-09-27T04:27:02.283Z,8.13
2018-09-27T04:29:30.808Z,9.03
2018-09-27T04:31:59.225Z,14.30
2018-09-27T04:34:27.739Z,8.13
2018-09-27T04:36:56.126Z,8.60
2018-09-27T04:39:24.530Z,7.70
2018-09-27T04:41:53.844Z,10.17
2018-09-27T04:44:22.322Z,9.77
2018-09-27T04:46:50.814Z,11.03
2018-09-27T04:49:19.192Z,6.80
2018-09-27T04:51:47.630Z,8.17
2018-09-27T04:54:15.903Z,11.67
2018-09-27T04:56:44.542Z,11.10
2018-09-27T04:59:14.000Z,8.00
2018-09-27T05:01:42.348Z,10.33
2018-09-27T05:04:10.793Z,11.50
2018-09-27T05:06:39.347Z,8.80
2018-09-27T05:09:08.304Z,7.93
2018-09-27T05:11:36.992Z,8.90
2018-09-27T05:14:05.414Z,11.53
2018-09-27T05:16:33.768Z,10.07
2018-09-27T05:19:02.264Z,7.23
2018-09-27T05:21:30.782Z,10.37
2018-09-27T05:23:59.255Z,8.33
2018-09-27T05:26:27.768Z,7.30
2018-09-27T05:28:56.189Z,8.70
2018-09-27T05:31:25.572Z,9.77
2018-09-27T05:33:54.012Z,10.90
2018-09-27T05:36:22.405Z,10.10
2018-09-27T05:38:50.829Z,8.23
2018-09-27T05:41:20.256Z,9.20
2018-09-27T05:43:48.680Z,11.30
2018-09-27T05:46:17.053Z,11.03
2018-09-27T05:48:47.516Z,9.73
2018-09-27T05:51:15.894Z,10.43
2018-09-27T05:53:44.214Z,11.27
2018-09-27T05:56:12.645Z,10.37
2018-09-27T05:58:41.205Z,13.60
2018-09-27T06:01:09.490Z,11.33
2018-09-27T06:03:37.905Z,12.10
2018-09-27T06:06:06.204Z,10.23
2018-09-27T06:08:34.484Z,10.87
2018-09-27T06:11:02.911Z,14.57
2018-09-27T06:13:31.207Z,8.50
2018-09-27T06:15:59.515Z,11.83
2018-09-27T06:18:27.803Z,10.83
2018-09-27T06:20:56.088Z,12.63
2018-09-27T06:23:24.382Z,8.23
2018-09-27T06:25:52.722Z,10.90
2018-09-27T06:28:20.984Z,9.93
2018-09-27T06:30:49.241Z,8.60
2018-09-27T06:33:17.569Z,15.53
2018-09-27T06:35:45.875Z,11.17
2018-09-27T06:38:14.175Z,13.53
2018-09-27T06:40:42.494Z,14.87
2018-09-27T06:43:10.802Z,14.90
2018-09-27T06:45:39.111Z,12.00
2018-09-27T06:48:07.380Z,18.90
2018-09-27T06:50:35.802Z,20.93
2018-09-27T06:53:04.024Z,14.50
2018-09-27T06:55:32.511Z,12.83
2018-09-27T06:58:00.680Z,22.07
2018-09-27T07:00:29.028Z,16.53
2018-09-27T07:02:57.317Z,13.60
2018-09-27T07:05:25.621Z,17.10
2018-09-27T07:07:53.907Z,14.23
2018-09-27T07:10:22.223Z,10.60
2018-09-27T07:12:50.599Z,16.67
2018-09-27T07:15:18.849Z,19.60
2018-09-27T07:17:47.159Z,11.30
2018-09-27T07:20:15.476Z,10.57
2018-09-27T07:22:43.769Z,10.03
2018-09-27T07:25:12.088Z,13.60
2018-09-27T07:27:40.352Z,14.40
2018-09-27T07:30:08.673Z,12.33
2018-09-27T07:32:37.315Z,12.97
2018-09-27T07:35:05.583Z,11.90
2018-09-27T07:37:33.902Z,16.33
2018-09-27T07:40:02.184Z,14.43
2018-09-27T07:42:30.484Z,15.90
2018-09-27T07:44:58.800Z,20.27
2018-09-27T07:47:27.105Z,15.53
2018-09-27T07:49:55.412Z,17.30
2018-09-27T07:52:23.731Z,12.93
2018-09-27T07:54:52.082Z,10.30
2018-09-27T07:57:20.400Z,9.60
2018-09-27T07:59:48.724Z,13.43
2018-09-27T08:02:17.061Z,10.20
2018-09-27T08:04:45.347Z,10.40
2018-09-27T08:07:13.656Z,9.93
2018-09-27T08:09:42.060Z,10.90
2018-09-27T08:12:10.364Z,14.23
2018-09-27T08:14:38.727Z,11.47
2018-09-27T08:17:06.998Z,14.10
2018-09-27T08:19:35.403Z,12.23
2018-09-27T08:22:03.754Z,12.33
2018-09-27T08:24:32.032Z,11.40
2018-09-27T08:27:00.327Z,12.43
2018-09-27T08:29:28.620Z,10.70
2018-09-27T08:31:56.996Z,14.10
2018-09-27T08:34:25.297Z,10.50
2018-09-27T08:36:53.599Z,13.47
2018-09-27T08:39:21.893Z,11.53
2018-09-27T08:41:50.224Z,12.33
2018-09-27T08:44:18.527Z,12.37
2018-09-27T08:46:46.817Z,13.30
2018-09-27T08:49:15.112Z,14.50
2018-09-27T08:51:43.508Z,12.10
2018-09-27T08:54:11.813Z,11.97
2018-09-27T08:56:40.155Z,12.83
2018-09-27T08:59:08.531Z,13.93
2018-09-27T09:01:37.193Z,10.20
2018-09-27T09:04:05.533Z,15.37
2018-09-27T09:06:33.959Z,14.60
2018-09-27T09:09:02.277Z,11.33
2018-09-27T09:11:30.640Z,13.13
2018-09-27T09:13:59.049Z,15.10
2018-09-27T09:16:27.401Z,12.70
2018-09-27T09:18:55.792Z,12.17
2018-09-27T09:21:25.106Z,13.27
2018-09-27T09:23:53.508Z,17.33
2018-09-27T09:26:21.874Z,13.70
2018-09-27T09:28:50.264Z,12.10
2018-09-27T09:31:18.596Z,14.37
2018-09-27T09:33:47.018Z,13.57
2018-09-27T09:36:15.365Z,15.03
2018-09-27T09:38:43.775Z,13.33
2018-09-27T09:41:12.130Z,16.57
2018-09-27T09:43:40.472Z,18.67
2018-09-27T09:46:08.904Z,13.60
2018-09-27T09:48:37.380Z,15.20
2018-09-27T09:51:05.681Z,15.87
2018-09-27T09:53:34.003Z,16.73
2018-09-27T09:56:02.445Z,17.03
2018-09-27T09:58:30.741Z,20.90
2018-09-27T10:00:59.044Z,15.37
2018-09-27T10:03:27.356Z,17.43
2018-09-27T10:05:55.697Z,20.13
2018-09-27T10:08:23.994Z,19.27
2018-09-27T10:10:52.320Z,19.57
2018-09-27T10:13:20.598Z,18.70
2018-09-27T10:15:49.068Z,18.90
2018-09-27T10:18:17.473Z,17.57
2018-09-27T10:20:45.767Z,17.40
2018-09-27T10:23:14.101Z,17.63
2018-09-27T10:25:42.389Z,13.00
2018-09-27T10:28:10.740Z,16.30
2018-09-27T10:30:39.026Z,16.07
2018-09-27T10:33:07.365Z,17.93
2018-09-27T10:35:35.748Z,13.70
2018-09-27T10:38:04.247Z,16.47
2018-09-27T10:40:32.683Z,15.73
2018-09-27T10:43:01.073Z,17.93
2018-09-27T10:45:29.478Z,17.67
2018-09-27T10:47:57.914Z,18.33
2018-09-27T10:50:28.360Z,20.20
2018-09-27T10:52:56.727Z,18.80
2018-09-27T10:55:25.139Z,17.80
2018-09-27T10:57:53.685Z,22.10
2018-09-27T11:00:23.911Z,16.03
2018-09-27T11:02:53.076Z,18.07
2018-09-27T11:05:21.564Z,16.00
2018-09-27T11:07:50.309Z,19.67
2018-09-27T11:10:19.657Z,20.97
2018-09-27T11:12:47.961Z,16.57
2018-09-27T11:15:17.273Z,16.73
2018-09-27T11:17:45.584Z,16.07
2018-09-27T11:20:13.897Z,19.63
2018-09-27T11:22:42.155Z,18.70
2018-09-27T11:25:10.549Z,19.77
2018-09-27T11:27:38.885Z,18.83
2018-09-27T11:30:12.455Z,15.50
2018-09-27T11:32:41.085Z,18.00
2018-09-27T11:35:09.522Z,19.93
2018-09-27T11:37:37.948Z,18.87
2018-09-27T11:40:07.256Z,18.90
2018-09-27T11:42:35.603Z,21.60
2018-09-27T11:45:04.097Z,19.00
2018-09-27T11:47:32.668Z,17.90
2018-09-27T11:50:01.083Z,17.67
2018-09-27T11:52:29.348Z,15.87
2018-09-27T11:54:57.709Z,15.77
2018-09-27T11:57:26.081Z,18.80
2018-09-27T11:59:54.896Z,19.23
2018-09-27T12:02:23.323Z,16.63
2018-09-27T12:04:51.952Z,18.33
2018-09-27T12:07:20.604Z,24.70
2018-09-27T12:09:49.047Z,25.90
2018-09-27T12:12:19.080Z,18.90
2018-09-27T12:14:47.545Z,24.63
2018-09-27T12:17:17.437Z,17.33
2018-09-27T12:19:45.948Z,14.87
2018-09-27T12:22:14.368Z,17.77
2018-09-27T12:24:42.731Z,13.80
2018-09-27T12:27:11.014Z,13.60
2018-09-27T12:29:39.453Z,16.07
2018-09-27T12:32:07.792Z,15.97
2018-09-27T12:34:36.225Z,15.53
2018-09-27T12:37:04.671Z,13.40
2018-09-27T12:39:33.176Z,12.90
2018-09-27T12:42:01.857Z,14.77
2018-09-27T12:44:30.043Z,13.53
2018-09-27T12:46:58.436Z,14.80
2018-09-27T12:49:27.005Z,10.77
2018-09-27T12:51:55.592Z,11.70
2018-09-27T12:54:23.750Z,10.67
2018-09-27T12:56:52.117Z,28.30
2018-09-27T12:59:20.515Z,26.47
2018-09-27T13:01:49.005Z,13.90
2018-09-27T13:04:18.221Z,9.40
2018-09-27T13:06:46.655Z,10.90
2018-09-27T13:09:15.189Z,10.17
2018-09-27T13:11:44.066Z,9.37
2018-09-27T13:14:12.622Z,8.10
2018-09-27T13:16:40.953Z,12.10
2018-09-27T13:19:09.352Z,14.00
2018-09-27T13:21:37.690Z,27.63
2018-09-27T13:24:06.094Z,12.80
2018-09-27T13:26:34.421Z,12.90
2018-09-27T13:29:03.647Z,65.60
2018-09-27T13:31:31.972Z,23.93
2018-09-27T13:34:00.310Z,11.50
2018-09-27T13:36:28.762Z,9.83
2018-09-27T13:38:57.455Z,9.17
2018-09-27T13:41:26.124Z,11.23
2018-09-27T13:43:54.634Z,7.13
2018-09-27T13:46:22.931Z,10.17
2018-09-27T13:48:51.233Z,7.70
2018-09-27T13:51:19.600Z,11.07
2018-09-27T13:53:47.923Z,8.57
2018-09-27T13:56:16.209Z,11.20
2018-09-27T13:58:44.505Z,12.63
2018-09-27T14:01:12.809Z,9.27
2018-09-27T14:03:41.089Z,19.30
2018-09-27T14:06:09.388Z,10.37
2018-09-27T14:08:38.204Z,7.40
2018-09-27T14:11:06.608Z,11.13
2018-09-27T14:13:35.034Z,10.73
2018-09-27T14:16:03.357Z,11.43
2018-09-27T14:18:45.848Z,8.07
2018-09-27T14:21:14.203Z,6.87
2018-09-27T14:23:42.568Z,11.50
2018-09-27T14:26:10.904Z,9.37
2018-09-27T14:28:39.234Z,16.93
2018-09-27T14:31:07.999Z,11.63
2018-09-27T14:33:36.846Z,8.67
2018-09-27T14:36:05.204Z,8.63
2018-09-27T14:38:33.577Z,7.90
2018-09-27T14:41:01.962Z,11.83
2018-09-27T14:43:30.211Z,8.77
2018-09-27T14:45:58.541Z,8.10
2018-09-27T14:48:26.869Z,10.40
2018-09-27T14:50:55.235Z,7.43
2018-09-27T14:53:23.574Z,9.43
2018-09-27T14:55:51.901Z,8.57
2018-09-27T14:58:20.212Z,9.13
2018-09-27T15:00:48.549Z,7.40
2018-09-27T15:03:17.081Z,6.33
2018-09-27T15:05:45.445Z,9.90
2018-09-27T15:08:13.864Z,6.23
2018-09-27T15:10:42.324Z,4.60
2018-09-27T15:13:10.676Z,7.80
2018-09-27T15:15:39.088Z,4.00
2018-09-27T15:18:09.556Z,5.77
2018-09-27T15:20:37.997Z,6.03
2018-09-27T15:23:12.233Z,10.53
2018-09-27T15:25:40.596Z,7.63
2018-09-27T15:28:08.961Z,4.87
2018-09-27T15:30:37.380Z,8.63
2018-09-27T15:33:05.692Z,4.77
2018-09-27T15:35:34.292Z,8.57
2018-09-27T15:38:02.630Z,12.17
2018-09-27T15:40:30.968Z,3.63
2018-09-27T15:42:59.265Z,4.43
2018-09-27T15:45:27.564Z,2.90
2018-09-27T15:47:55.872Z,3.27
2018-09-27T15:50:24.178Z,5.97
2018-09-27T15:52:52.544Z,4.53
2018-09-27T15:55:20.876Z,6.10
2018-09-27T15:57:49.284Z,3.13
2018-09-27T16:00:17.732Z,5.60
2018-09-27T16:02:46.081Z,4.67
2018-09-27T16:05:14.425Z,4.50
2018-09-27T16:07:42.734Z,7.00
2018-09-27T16:10:11.052Z,6.37
2018-09-27T16:12:39.470Z,7.83
2018-09-27T16:15:07.839Z,8.80
2018-09-27T16:17:36.269Z,4.63
2018-09-27T16:20:04.593Z,7.50
2018-09-27T16:22:32.985Z,10.23
2018-09-27T16:25:01.370Z,5.03
2018-09-27T16:27:31.757Z,5.97
2018-09-27T16:30:00.172Z,9.57
2018-09-27T16:32:28.630Z,8.17
2018-09-27T16:34:57.025Z,6.03
2018-09-27T16:37:25.441Z,13.60
2018-09-27T16:39:53.801Z,13.53
2018-09-27T16:42:22.160Z,12.60
2018-09-27T16:44:50.540Z,9.17
2018-09-27T16:47:18.934Z,7.37
2018-09-27T16:49:48.290Z,7.97
2018-09-27T16:52:17.916Z,5.87
2018-09-27T16:54:46.366Z,5.13
2018-09-27T16:57:14.797Z,5.73
2018-09-27T16:59:43.362Z,8.60
2018-09-27T17:02:11.781Z,4.83
2018-09-27T17:04:40.165Z,5.63
2018-09-27T17:07:08.632Z,7.53
2018-09-27T17:09:37.059Z,5.90
2018-09-27T17:12:05.683Z,6.77
2018-09-27T17:14:34.307Z,5.17
2018-09-27T17:17:02.840Z,7.07
2018-09-27T17:19:31.257Z,8.47
2018-09-27T17:21:59.594Z,7.77
2018-09-27T17:24:27.998Z,9.47
2018-09-27T17:26:56.324Z,7.30
2018-09-27T17:29:24.766Z,11.20
2018-09-27T17:31:53.164Z,10.60
2018-09-27T17:34:21.512Z,7.97
2018-09-27T17:36:50.016Z,5.77
2018-09-27T17:39:18.377Z,6.50
2018-09-27T17:41:46.717Z,7.70
